Aérodrome :
LOGIN :

S'inscrire | Disclaimer

   EN    FR    IT 

 










Légende :    VFR   VFR Marginal   IFR   IFR Intensif   IFR Très Intensif
Visi : 
Plafond : 
>= 8 km
>= 3000ft
5 à 8 km
1000 à 3000 ft
1500m à 5 km
500 à 1000 ft
800 à 1500m
200 à 500 ft
< 800m
< 200 ft
Symboles :   Orages  Brouillard  Fortes neiges  Fortes précipitations  Vent > 20 kt
SIGMETs :   Divers  Orages  Givrage  Turbulence  Onde Orograph.  Cendres Volcan.






- Altitude de l'aérodrome : 876 ft
- Code IATA : MBX


LJMB - Maribor

DERNIER METAR :
  • 232000Z AUTO 17017KT 9999 BKN046/// 13/04 Q0997

METARs EXPIRÉS :
  • 231930Z AUTO 18017KT 9999 BKN047/// BKN180/// BKN240/// 13/04 Q0997
  • 231900Z AUTO 18017KT 9999 FEW051/// BKN230/// 13/04 Q0997
  • 231830Z AUTO 18017KT 9999 NSC 13/04 Q0997
  • 231800Z AUTO 18019KT 9999 NSC 13/04 Q0997
  • 231730Z AUTO 18018KT 9999 NSC 13/04 Q0997
  • 231700Z AUTO 18018KT 9999 NSC 13/04 Q0997
  • 231630Z AUTO 18015KT 9999 FEW052/// SCT066/// BKN120/// 13/04 Q0997
  • 231600Z AUTO 18017KT 9999 NSC 13/04 Q0997
  • 231530Z 18017KT 9999 BKN049 13/04 Q0997

TAF TAF LJMB
Valide du 23 à 18h jusqu'au 24 à 18h UTC


231700Z 2318/2418 18010KT 9999 BKN050
TEMPO 2318/2400 -RA
TEMPO 2318/2408 18018G28KT
PROB30
TEMPO 2408/2418 18015G25KT



MET'MAP, la Météo Aéronautique d'un coup d'oeil ! - Copyright ORBIFLY Décembre 2007 - Disclaimer

ORBIFLY MET'MAP TEAM :

Programmation & Développement : Alexandra Zaïnal
Sur une idée originale de : Baudouin d'Aumeries
Soutien technique & logistique : Manuel Goepfert
Assistance : Marc-Olivier Méhu




SOURCES & CREDITS :

   NOAA